Time,TemperatureF,DewpointF,PressureIn,WindDirection,WindDirectionDegrees,WindSpeedMPH,WindSpeedGustMPH,Humidity,HourlyPrecipIn,Conditions,Clouds,dailyrainin,SoftwareType,DateUTC
2013-05-28 00:03:00,56.0,38.0,30.22,NE,37,0.0,0.0,51,0.00,,,0.00,,2013-05-28 04:03:00,
2013-05-28 00:13:00,56.0,38.0,30.22,NE,37,0.0,0.0,51,0.00,,,0.00,,2013-05-28 04:13:00,
2013-05-28 00:22:00,56.0,39.0,30.22,NE,37,0.0,1.0,52,0.00,,,0.00,,2013-05-28 04:22:00,
2013-05-28 00:33:00,56.0,39.0,30.22,NE,41,0.0,1.0,53,0.00,,,0.00,,2013-05-28 04:33:00,
2013-05-28 00:43:00,56.0,39.0,30.22,NE,41,0.0,1.0,53,0.00,,,0.00,,2013-05-28 04:43:00,
2013-05-28 00:52:00,55.0,39.0,30.22,NE,41,0.0,0.0,54,0.00,,,0.00,,2013-05-28 04:52:00,
2013-05-28 01:02:00,55.0,39.0,30.22,NE,41,0.0,0.0,54,0.00,,,0.00,,2013-05-28 05:02:00,
2013-05-28 01:12:00,55.0,39.0,30.22,NE,41,0.0,0.0,54,0.00,,,0.00,,2013-05-28 05:12:00,
2013-05-28 01:22:00,55.0,40.0,30.21,NE,41,0.0,0.0,56,0.00,,,0.00,,2013-05-28 05:22:00,
2013-05-28 01:33:00,55.0,39.0,30.21,NE,41,0.0,0.0,55,0.00,,,0.00,,2013-05-28 05:33:00,
2013-05-28 01:42:00,55.0,39.0,30.21,NE,41,0.0,0.0,55,0.00,,,0.00,,2013-05-28 05:42:00,
2013-05-28 01:52:00,54.0,38.0,30.20,NE,41,0.0,0.0,55,0.00,,,0.00,,2013-05-28 05:52:00,
2013-05-28 02:02:00,55.0,39.0,30.20,NE,41,0.0,1.0,54,0.00,,,0.00,,2013-05-28 06:02:00,
2013-05-28 02:12:00,55.0,39.0,30.20,NE,41,0.0,1.0,54,0.00,,,0.00,,2013-05-28 06:12:00,
2013-05-28 02:22:00,55.0,38.0,30.20,NE,51,0.0,1.0,52,0.00,,,0.00,,2013-05-28 06:22:00,
2013-05-28 02:32:00,55.0,37.0,30.20,NE,52,0.0,1.0,51,0.00,,,0.00,,2013-05-28 06:32:00,
2013-05-28 02:42:00,55.0,37.0,30.20,NE,52,0.0,1.0,51,0.00,,,0.00,,2013-05-28 06:42:00,
2013-05-28 02:52:00,56.0,37.0,30.20,SW,229,1.0,3.0,49,0.00,,,0.00,,2013-05-28 06:52:00,
2013-05-28 03:02:00,56.0,38.0,30.20,SW,229,0.0,5.0,50,0.00,,,0.00,,2013-05-28 07:02:00,
2013-05-28 03:11:00,56.0,38.0,30.20,SW,229,0.0,5.0,50,0.00,,,0.00,,2013-05-28 07:11:00,
2013-05-28 03:22:00,56.0,38.0,30.19,SW,234,0.0,2.0,50,0.00,,,0.00,,2013-05-28 07:22:00,
2013-05-28 03:32:00,56.0,39.0,30.19,SW,229,0.0,2.0,52,0.00,,,0.00,,2013-05-28 07:32:00,
2013-05-28 03:42:00,56.0,39.0,30.19,SW,229,0.0,2.0,52,0.00,,,0.00,,2013-05-28 07:42:00,
2013-05-28 03:52:00,55.0,39.0,30.19,SW,229,0.0,0.0,54,0.00,,,0.00,,2013-05-28 07:52:00,
2013-05-28 04:02:00,55.0,39.0,30.19,SW,229,0.0,1.0,55,0.00,,,0.00,,2013-05-28 08:02:00,
2013-05-28 04:12:00,55.0,39.0,30.19,SW,229,0.0,1.0,55,0.00,,,0.00,,2013-05-28 08:12:00,
2013-05-28 04:22:00,55.0,39.0,30.18,SW,229,0.0,0.0,54,0.00,,,0.00,,2013-05-28 08:22:00,
2013-05-28 04:32:00,54.0,39.0,30.16,SW,228,0.0,0.0,57,0.00,,,0.00,,2013-05-28 08:32:00,
2013-05-28 04:42:00,54.0,39.0,30.16,SW,228,0.0,0.0,57,0.00,,,0.00,,2013-05-28 08:42:00,
2013-05-28 04:51:00,53.0,39.0,30.16,SW,228,0.0,0.0,59,0.00,,,0.00,,2013-05-28 08:51:00,
2013-05-28 05:01:00,53.0,41.0,30.16,SW,228,0.0,0.0,63,0.00,,,0.00,,2013-05-28 09:01:00,
2013-05-28 05:11:00,53.0,41.0,30.16,SW,228,0.0,0.0,63,0.00,,,0.00,,2013-05-28 09:11:00,
2013-05-28 05:21:00,53.0,39.0,30.16,SSW,213,0.0,2.0,60,0.00,,,0.00,,2013-05-28 09:21:00,
2013-05-28 05:33:00,53.0,39.0,30.15,South,182,0.0,2.0,59,0.00,,,0.00,,2013-05-28 09:33:00,
2013-05-28 05:43:00,53.0,39.0,30.15,South,182,0.0,2.0,59,0.00,,,0.00,,2013-05-28 09:43:00,
2013-05-28 05:53:00,54.0,40.0,30.15,SE,138,0.0,3.0,58,0.00,,,0.00,,2013-05-28 09:53:00,
2013-05-28 06:03:00,54.0,40.0,30.15,ESE,117,0.0,5.0,58,0.00,,,0.00,,2013-05-28 10:03:00,
2013-05-28 06:12:00,54.0,40.0,30.15,ESE,117,0.0,5.0,58,0.00,,,0.00,,2013-05-28 10:12:00,
2013-05-28 06:23:00,55.0,40.0,30.14,ESE,104,3.0,9.0,56,0.00,,,0.00,,2013-05-28 10:23:00,
2013-05-28 06:32:00,56.0,40.0,30.14,ESE,107,2.0,7.0,55,0.00,,,0.00,,2013-05-28 10:32:00,
2013-05-28 06:43:00,56.0,40.0,30.14,ESE,107,2.0,7.0,55,0.00,,,0.00,,2013-05-28 10:43:00,
2013-05-28 06:53:00,56.0,40.0,30.14,ESE,121,2.0,7.0,55,0.00,,,0.00,,2013-05-28 10:53:00,
2013-05-28 07:02:00,56.0,41.0,30.14,ESE,112,2.0,6.0,56,0.00,,,0.00,,2013-05-28 11:02:00,
2013-05-28 07:11:00,56.0,41.0,30.14,ESE,112,2.0,6.0,56,0.00,,,0.00,,2013-05-28 11:11:00,
2013-05-28 07:22:00,56.0,41.0,30.14,ESE,113,5.0,10.0,56,0.00,,,0.00,,2013-05-28 11:22:00,
2013-05-28 07:32:00,56.0,41.0,30.14,SSE,167,3.0,10.0,56,0.00,,,0.00,,2013-05-28 11:32:00,
2013-05-28 07:42:00,56.0,41.0,30.14,SSE,167,3.0,10.0,56,0.00,,,0.00,,2013-05-28 11:42:00,
2013-05-28 07:52:00,56.0,41.0,30.14,ESE,107,1.0,5.0,56,0.00,,,0.00,,2013-05-28 11:52:00,
2013-05-28 08:02:00,56.0,41.0,30.14,SE,134,2.0,7.0,57,0.00,,,0.00,,2013-05-28 12:02:00,
2013-05-28 08:11:00,56.0,41.0,30.14,SE,134,2.0,7.0,57,0.00,,,0.00,,2013-05-28 12:11:00,
2013-05-28 08:22:00,56.0,41.0,30.14,SE,144,1.0,6.0,58,0.00,,,0.00,,2013-05-28 12:22:00,
2013-05-28 08:32:00,57.0,43.0,30.14,ESE,119,0.0,5.0,59,0.00,,,0.00,,2013-05-28 12:32:00,
2013-05-28 08:42:00,57.0,43.0,30.14,ESE,119,0.0,5.0,59,0.00,,,0.00,,2013-05-28 12:42:00,
2013-05-28 08:52:00,57.0,43.0,30.14,ESE,110,1.0,7.0,59,0.00,,,0.00,,2013-05-28 12:52:00,
2013-05-28 09:01:00,57.0,44.0,30.15,ESE,123,0.0,3.0,61,0.00,,,0.00,,2013-05-28 13:01:00,
2013-05-28 09:11:00,57.0,44.0,30.15,ESE,123,0.0,3.0,61,0.00,,,0.00,,2013-05-28 13:11:00,
2013-05-28 09:22:00,57.0,46.0,30.15,South,190,0.0,2.0,67,0.00,,,0.00,,2013-05-28 13:22:00,
2013-05-28 09:32:00,56.0,46.0,30.15,SSE,161,0.0,4.0,68,0.00,,,0.00,,2013-05-28 13:32:00,
2013-05-28 09:42:00,56.0,46.0,30.15,SSE,161,0.0,4.0,68,0.00,,,0.00,,2013-05-28 13:42:00,
2013-05-28 09:52:00,56.0,48.0,30.15,SE,136,0.0,2.0,74,0.01,,,0.01,,2013-05-28 13:52:00,
2013-05-28 10:02:00,55.0,49.0,30.15,SSE,161,0.0,2.0,80,0.02,,,0.02,,2013-05-28 14:02:00,
2013-05-28 10:12:00,55.0,49.0,30.15,SSE,161,0.0,2.0,80,0.02,,,0.02,,2013-05-28 14:12:00,
2013-05-28 10:21:00,54.0,49.0,30.15,South,181,0.0,3.0,83,0.04,,,0.04,,2013-05-28 14:21:00,
2013-05-28 10:32:00,54.0,50.0,30.15,South,181,0.0,1.0,87,0.06,,,0.06,,2013-05-28 14:32:00,
2013-05-28 10:42:00,54.0,50.0,30.15,South,181,0.0,1.0,87,0.06,,,0.06,,2013-05-28 14:42:00,
2013-05-28 10:52:00,53.0,50.0,30.15,ESE,103,0.0,2.0,88,0.06,,,0.07,,2013-05-28 14:52:00,
2013-05-28 11:01:00,53.0,50.0,30.15,ESE,103,0.0,2.0,88,0.06,,,0.07,,2013-05-28 15:01:00,
2013-05-28 11:11:00,53.0,50.0,30.15,ESE,103,0.0,2.0,88,0.06,,,0.07,,2013-05-28 15:11:00,
2013-05-28 11:21:00,53.0,50.0,30.15,ESE,107,0.0,2.0,91,0.08,,,0.12,,2013-05-28 15:21:00,
2013-05-28 11:33:00,53.0,51.0,30.15,ESE,116,0.0,3.0,92,0.10,,,0.16,,2013-05-28 15:33:00,
2013-05-28 11:43:00,53.0,51.0,30.15,ESE,116,0.0,3.0,92,0.10,,,0.16,,2013-05-28 15:43:00,
2013-05-28 11:52:00,53.0,51.0,30.15,ESE,110,1.0,5.0,93,0.11,,,0.18,,2013-05-28 15:52:00,
2013-05-28 12:03:00,54.0,52.0,30.14,SSE,159,1.0,5.0,93,0.10,,,0.20,,2013-05-28 16:03:00,
2013-05-28 12:13:00,54.0,52.0,30.14,SSE,159,1.0,5.0,93,0.10,,,0.20,,2013-05-28 16:13:00,
2013-05-28 12:23:00,54.0,52.0,30.13,East,90,3.0,8.0,93,0.08,,,0.20,,2013-05-28 16:23:00,
2013-05-28 12:33:00,55.0,53.0,30.13,SE,137,3.0,9.0,93,0.04,,,0.20,,2013-05-28 16:33:00,
2013-05-28 12:42:00,55.0,53.0,30.13,SE,137,3.0,9.0,93,0.04,,,0.20,,2013-05-28 16:42:00,
2013-05-28 12:52:00,55.0,53.0,30.13,East,101,2.0,7.0,93,0.02,,,0.20,,2013-05-28 16:52:00,
2013-05-28 13:02:00,56.0,54.0,30.13,SE,126,0.0,6.0,94,0.00,,,0.20,,2013-05-28 17:02:00,
2013-05-28 13:12:00,56.0,54.0,30.13,SE,126,0.0,6.0,94,0.00,,,0.20,,2013-05-28 17:12:00,
2013-05-28 13:22:00,56.0,54.0,30.13,SE,126,0.0,6.0,94,0.00,,,0.20,,2013-05-28 17:22:00,
2013-05-28 13:32:00,57.0,55.0,30.12,ESE,111,2.0,6.0,94,0.00,,,0.20,,2013-05-28 17:32:00,
2013-05-28 13:42:00,57.0,55.0,30.11,ESE,104,1.0,8.0,93,0.00,,,0.20,,2013-05-28 17:42:00,
2013-05-28 13:52:00,57.0,55.0,30.11,ESE,104,1.0,8.0,93,0.00,,,0.20,,2013-05-28 17:52:00,
2013-05-28 14:01:00,58.0,56.0,30.11,ESE,106,1.0,5.0,93,0.00,,,0.20,,2013-05-28 18:01:00,
2013-05-28 14:11:00,58.0,56.0,30.11,ESE,106,1.0,5.0,93,0.00,,,0.20,,2013-05-28 18:11:00,
2013-05-28 14:22:00,58.0,56.0,30.10,East,93,2.0,5.0,93,0.00,,,0.20,,2013-05-28 18:22:00,
2013-05-28 14:32:00,58.0,56.0,30.11,East,101,1.0,7.0,93,0.00,,,0.20,,2013-05-28 18:32:00,
2013-05-28 14:42:00,58.0,56.0,30.11,East,101,1.0,7.0,93,0.00,,,0.20,,2013-05-28 18:42:00,
2013-05-28 14:52:00,60.0,58.0,30.10,SSE,150,1.0,7.0,92,0.00,,,0.20,,2013-05-28 18:52:00,
2013-05-28 15:01:00,60.0,57.0,30.11,SE,135,0.0,6.0,91,0.00,,,0.20,,2013-05-28 19:01:00,
2013-05-28 15:11:00,60.0,57.0,30.11,SE,135,0.0,6.0,91,0.00,,,0.20,,2013-05-28 19:11:00,
2013-05-28 15:21:00,61.0,58.0,30.11,South,171,1.0,6.0,90,0.00,,,0.20,,2013-05-28 19:21:00,
2013-05-28 15:32:00,61.0,57.0,30.11,SSW,194,2.0,5.0,88,0.00,,,0.20,,2013-05-28 19:32:00,
2013-05-28 15:42:00,61.0,57.0,30.11,SSW,194,2.0,5.0,88,0.00,,,0.20,,2013-05-28 19:42:00,
2013-05-28 15:52:00,61.0,57.0,30.10,ESE,122,1.0,5.0,88,0.00,,,0.20,,2013-05-28 19:52:00,
2013-05-28 16:02:00,61.0,57.0,30.10,SE,126,0.0,3.0,88,0.00,,,0.20,,2013-05-28 20:02:00,
2013-05-28 16:11:00,61.0,57.0,30.10,SE,126,0.0,3.0,88,0.00,,,0.20,,2013-05-28 20:11:00,
2013-05-28 16:22:00,61.0,58.0,30.10,SSE,159,0.0,5.0,89,0.00,,,0.20,,2013-05-28 20:22:00,
2013-05-28 16:32:00,61.0,57.0,30.10,SE,126,1.0,5.0,88,0.00,,,0.20,,2013-05-28 20:32:00,
2013-05-28 16:42:00,61.0,57.0,30.10,SE,126,1.0,5.0,88,0.00,,,0.20,,2013-05-28 20:42:00,
2013-05-28 16:52:00,61.0,58.0,30.09,ESE,110,1.0,4.0,89,0.00,,,0.20,,2013-05-28 20:52:00,
2013-05-28 17:02:00,62.0,59.0,30.09,SSE,155,0.0,4.0,89,0.00,,,0.20,,2013-05-28 21:02:00,
2013-05-28 17:11:00,62.0,59.0,30.09,SSE,155,0.0,4.0,89,0.00,,,0.20,,2013-05-28 21:11:00,
2013-05-28 17:22:00,62.0,59.0,30.07,ESE,114,0.0,5.0,89,0.00,,,0.20,,2013-05-28 21:22:00,
2013-05-28 17:33:00,62.0,58.0,30.07,ESE,102,1.0,5.0,87,0.00,,,0.20,,2013-05-28 21:33:00,
2013-05-28 17:43:00,62.0,58.0,30.07,ESE,102,1.0,5.0,87,0.00,,,0.20,,2013-05-28 21:43:00,
2013-05-28 17:53:00,63.0,59.0,30.07,SE,132,0.0,6.0,87,0.00,,,0.20,,2013-05-28 21:53:00,
2013-05-28 18:02:00,63.0,59.0,30.07,ESE,120,0.0,4.0,88,0.00,,,0.20,,2013-05-28 22:02:00,
2013-05-28 18:13:00,63.0,59.0,30.07,ESE,120,0.0,4.0,88,0.00,,,0.20,,2013-05-28 22:13:00,
2013-05-28 18:22:00,63.0,59.0,30.06,ESE,113,1.0,8.0,88,0.00,,,0.20,,2013-05-28 22:22:00,
2013-05-28 18:33:00,62.0,58.0,30.05,SE,132,2.0,5.0,88,0.00,,,0.20,,2013-05-28 22:33:00,
2013-05-28 18:42:00,62.0,59.0,30.05,ENE,78,0.0,6.0,89,0.01,,,0.21,,2013-05-28 22:42:00,
2013-05-28 18:52:00,62.0,59.0,30.05,ENE,78,0.0,6.0,89,0.01,,,0.21,,2013-05-28 22:52:00,
2013-05-28 19:02:00,61.0,58.0,30.05,ESE,120,0.0,3.0,90,0.01,,,0.21,,2013-05-28 23:02:00,
2013-05-28 19:11:00,61.0,58.0,30.05,ESE,120,0.0,3.0,90,0.01,,,0.21,,2013-05-28 23:11:00,
2013-05-28 19:22:00,62.0,59.0,30.04,SE,140,1.0,5.0,90,0.01,,,0.21,,2013-05-28 23:22:00,
2013-05-28 19:32:00,61.0,58.0,30.04,SE,136,1.0,7.0,89,0.01,,,0.21,,2013-05-28 23:32:00,
2013-05-28 19:42:00,61.0,58.0,30.04,SE,136,1.0,7.0,89,0.01,,,0.21,,2013-05-28 23:42:00,
2013-05-28 19:52:00,61.0,58.0,30.04,SSE,158,1.0,5.0,89,0.00,,,0.21,,2013-05-28 23:52:00,
2013-05-28 20:02:00,61.0,58.0,30.04,East,101,0.0,6.0,90,0.00,,,0.21,,2013-05-29 00:02:00,
2013-05-28 20:11:00,61.0,58.0,30.04,East,101,0.0,6.0,90,0.00,,,0.21,,2013-05-29 00:11:00,
2013-05-28 20:22:00,61.0,58.0,30.03,SE,133,1.0,6.0,90,0.00,,,0.21,,2013-05-29 00:22:00,
2013-05-28 20:32:00,60.0,57.0,30.03,ESE,105,1.0,7.0,91,0.00,,,0.21,,2013-05-29 00:32:00,
2013-05-28 20:42:00,60.0,57.0,30.03,ESE,105,1.0,7.0,91,0.00,,,0.21,,2013-05-29 00:42:00,
2013-05-28 20:52:00,60.0,57.0,30.06,ESE,120,0.0,2.0,91,0.03,,,0.24,,2013-05-29 00:52:00,
2013-05-28 21:01:00,60.0,58.0,30.09,NW,318,0.0,2.0,93,0.08,,,0.28,,2013-05-29 01:01:00,
2013-05-28 21:11:00,60.0,58.0,30.09,NW,318,0.0,2.0,93,0.08,,,0.28,,2013-05-29 01:11:00,
2013-05-28 21:22:00,59.0,57.0,30.04,SE,134,3.0,6.0,94,0.17,,,0.38,,2013-05-29 01:22:00,
2013-05-28 21:32:00,59.0,58.0,30.04,SSE,162,2.0,8.0,95,0.22,,,0.43,,2013-05-29 01:32:00,
2013-05-28 21:42:00,59.0,58.0,30.04,SSE,162,2.0,8.0,95,0.22,,,0.43,,2013-05-29 01:42:00,
2013-05-28 21:52:00,58.0,57.0,30.02,SSE,157,3.0,8.0,96,0.24,,,0.48,,2013-05-29 01:52:00,
2013-05-28 22:02:00,58.0,57.0,30.01,SE,132,3.0,8.0,96,0.23,,,0.52,,2013-05-29 02:02:00,
2013-05-28 22:12:00,58.0,57.0,30.01,SE,132,3.0,8.0,96,0.23,,,0.52,,2013-05-29 02:12:00,
2013-05-28 22:21:00,59.0,58.0,30.01,SE,140,2.0,11.0,96,0.13,,,0.52,,2013-05-29 02:21:00,
2013-05-28 22:32:00,59.0,58.0,30.00,SSE,167,2.0,10.0,97,0.08,,,0.52,,2013-05-29 02:32:00,
2013-05-28 22:42:00,59.0,58.0,30.01,SSE,154,0.0,7.0,97,0.04,,,0.52,,2013-05-29 02:42:00,
2013-05-28 22:51:00,59.0,58.0,30.01,SSE,154,0.0,7.0,97,0.04,,,0.52,,2013-05-29 02:51:00,
2013-05-28 23:02:00,59.0,58.0,30.01,ESE,113,1.0,4.0,97,0.00,,,0.52,,2013-05-29 03:02:00,
2013-05-28 23:12:00,59.0,58.0,30.01,ESE,113,1.0,4.0,97,0.00,,,0.52,,2013-05-29 03:12:00,
2013-05-28 23:22:00,59.0,58.0,30.00,South,184,1.0,5.0,97,0.00,,,0.52,,2013-05-29 03:22:00,
2013-05-28 23:33:00,59.0,58.0,30.01,SSE,166,1.0,5.0,97,0.00,,,0.52,,2013-05-29 03:33:00,
2013-05-28 23:43:00,59.0,58.0,30.01,SSE,166,1.0,5.0,97,0.00,,,0.52,,2013-05-29 03:43:00,
2013-05-28 23:53:00,59.0,58.0,30.00,SW,225,1.0,4.0,97,0.00,,,0.52,,2013-05-29 03:53:00,